createdAt,value
2022-12-02T00:00:22.958Z,6.93
2022-12-02T00:03:12.686Z,6.40
2022-12-02T00:05:57.931Z,6.50
2022-12-02T00:08:42.772Z,7.13
2022-12-02T00:11:31.102Z,6.95
2022-12-02T00:14:22.051Z,6.72
2022-12-02T00:17:06.834Z,7.15
2022-12-02T00:19:52.560Z,6.85
2022-12-02T00:22:37.349Z,7.55
2022-12-02T00:25:22.291Z,7.18
2022-12-02T00:28:07.428Z,6.93
2022-12-02T00:30:52.233Z,7.35
2022-12-02T00:33:36.991Z,7.00
2022-12-02T00:36:21.834Z,7.57
2022-12-02T00:39:06.721Z,7.93
2022-12-02T00:41:51.521Z,7.43
2022-12-02T00:44:55.663Z,7.72
2022-12-02T00:47:40.558Z,7.13
2022-12-02T00:50:25.613Z,7.35
2022-12-02T00:53:10.451Z,7.72
2022-12-02T00:55:55.316Z,7.22
2022-12-02T00:58:40.328Z,7.93
2022-12-02T01:01:25.720Z,7.50
2022-12-02T01:04:11.281Z,7.25
2022-12-02T01:06:56.131Z,6.75
2022-12-02T01:09:41.154Z,7.40
2022-12-02T01:12:26.012Z,7.65
2022-12-02T01:15:11.289Z,7.88
2022-12-02T01:17:55.952Z,7.00
2022-12-02T01:20:40.989Z,7.47
2022-12-02T01:23:26.167Z,7.30
2022-12-02T01:26:10.799Z,7.10
2022-12-02T01:28:55.711Z,6.53
2022-12-02T01:31:40.837Z,6.90
2022-12-02T01:34:25.967Z,6.68
2022-12-02T01:37:10.818Z,6.82
2022-12-02T01:39:55.752Z,7.22
2022-12-02T01:42:41.482Z,6.10
2022-12-02T01:45:27.037Z,6.40
2022-12-02T01:48:11.890Z,6.00
2022-12-02T01:50:57.419Z,6.57
2022-12-02T01:53:42.506Z,7.03
2022-12-02T01:56:27.597Z,6.20
2022-12-02T01:59:16.040Z,7.10
2022-12-02T02:02:00.582Z,6.57
2022-12-02T02:04:45.593Z,6.50
2022-12-02T02:07:31.427Z,6.68
2022-12-02T02:10:17.716Z,7.43
2022-12-02T02:13:04.428Z,6.22
2022-12-02T02:15:50.155Z,6.60
2022-12-02T02:18:35.326Z,6.95
2022-12-02T02:21:26.440Z,6.60
2022-12-02T02:24:11.189Z,5.95
2022-12-02T02:26:56.064Z,6.30
2022-12-02T02:29:42.396Z,6.28
2022-12-02T02:32:28.728Z,7.03
2022-12-02T02:35:14.119Z,6.55
2022-12-02T02:37:59.448Z,7.53
2022-12-02T02:40:44.989Z,6.10
2022-12-02T02:43:31.233Z,6.15
2022-12-02T02:46:16.616Z,6.93
2022-12-02T02:49:01.815Z,7.03
2022-12-02T02:51:47.107Z,6.43
2022-12-02T02:54:32.119Z,6.43
2022-12-02T02:57:17.095Z,6.15
2022-12-02T03:00:51.945Z,5.82
2022-12-02T03:03:50.646Z,6.57
2022-12-02T03:06:40.745Z,6.50
2022-12-02T03:09:25.592Z,5.90
2022-12-02T03:14:55.789Z,6.22
2022-12-02T03:17:40.734Z,6.50
2022-12-02T03:20:25.915Z,5.95
2022-12-02T03:23:10.902Z,6.05
2022-12-02T03:25:56.559Z,6.38
2022-12-02T03:28:42.075Z,6.22
2022-12-02T03:31:27.575Z,6.47
2022-12-02T03:34:13.614Z,6.57
2022-12-02T03:36:59.426Z,7.05
2022-12-02T03:39:44.362Z,6.53
2022-12-02T03:42:29.309Z,6.60
2022-12-02T03:47:59.775Z,6.38
2022-12-02T03:50:44.506Z,6.05
2022-12-02T03:53:29.991Z,6.22
2022-12-02T03:56:14.928Z,6.68
2022-12-02T03:58:59.828Z,6.95
2022-12-02T04:01:44.791Z,7.10
2022-12-02T04:07:14.307Z,6.85
2022-12-02T04:09:59.276Z,6.60
2022-12-02T04:12:44.316Z,7.18
2022-12-02T04:18:14.482Z,6.43
2022-12-02T04:20:59.444Z,6.93
2022-12-02T04:23:44.453Z,7.13
2022-12-02T04:26:29.417Z,6.85
2022-12-02T04:29:14.784Z,7.32
2022-12-02T04:31:59.339Z,7.40
2022-12-02T04:34:44.411Z,7.70
2022-12-02T04:37:29.268Z,6.75
2022-12-02T04:40:14.209Z,6.60
2022-12-02T04:42:59.191Z,7.00
2022-12-02T04:45:44.086Z,7.00
2022-12-02T04:48:29.037Z,7.47
2022-12-02T04:51:13.793Z,6.50
2022-12-02T04:53:58.867Z,7.18
2022-12-02T04:56:43.737Z,7.38
2022-12-02T04:59:28.826Z,6.97
2022-12-02T05:02:13.836Z,7.10
2022-12-02T05:04:58.721Z,6.90
2022-12-02T05:07:43.892Z,7.13
2022-12-02T05:10:28.658Z,7.47
2022-12-02T05:15:58.783Z,6.80
2022-12-02T05:21:28.162Z,6.75
2022-12-02T05:24:13.308Z,6.93
2022-12-02T05:26:58.118Z,6.90
2022-12-02T05:29:43.072Z,7.30
2022-12-02T05:32:28.038Z,6.60
2022-12-02T05:35:12.863Z,7.43
2022-12-02T05:38:03.165Z,6.50
2022-12-02T05:40:53.759Z,6.25
2022-12-02T05:43:40.477Z,6.38
2022-12-02T05:46:26.411Z,6.13
2022-12-02T05:49:23.350Z,6.30
2022-12-02T05:52:25.990Z,6.28
2022-12-02T05:55:14.905Z,6.53
2022-12-02T05:58:02.111Z,6.97
2022-12-02T06:00:57.186Z,6.55
2022-12-02T06:03:41.895Z,7.15
2022-12-02T06:06:32.790Z,7.82
2022-12-02T06:09:22.716Z,7.35
2022-12-02T06:12:16.029Z,7.40
2022-12-02T06:15:00.856Z,6.97
2022-12-02T06:17:46.245Z,7.97
2022-12-02T06:20:33.467Z,7.03
2022-12-02T06:23:21.294Z,6.85
2022-12-02T06:26:06.863Z,7.22
2022-12-02T06:29:02.004Z,7.18
2022-12-02T06:31:47.051Z,6.38
2022-12-02T06:34:37.860Z,7.22
2022-12-02T06:40:29.318Z,6.00
2022-12-02T06:43:24.909Z,6.78
2022-12-02T06:46:20.462Z,6.95
2022-12-02T06:49:25.027Z,7.45
2022-12-02T06:52:21.600Z,7.35
2022-12-02T06:55:24.600Z,7.10
2022-12-02T06:58:58.132Z,7.40
2022-12-02T07:01:43.835Z,7.07
2022-12-02T07:04:57.726Z,6.38
2022-12-02T07:08:38.353Z,6.13
2022-12-02T07:11:50.586Z,7.07
2022-12-02T07:15:31.327Z,6.72
2022-12-02T07:18:34.899Z,6.72
2022-12-02T07:21:38.427Z,6.78
2022-12-02T07:24:24.773Z,6.97
2022-12-02T07:27:24.732Z,6.82
2022-12-02T07:30:34.274Z,6.57
2022-12-02T07:33:19.069Z,6.93
2022-12-02T07:36:04.310Z,6.90
2022-12-02T07:39:06.212Z,7.63
2022-12-02T07:41:54.729Z,7.55
2022-12-02T07:44:41.734Z,7.18
2022-12-02T07:47:26.625Z,7.03
2022-12-02T07:50:26.675Z,6.38
2022-12-02T07:53:11.656Z,6.60
2022-12-02T07:55:59.018Z,6.70
2022-12-02T07:59:12.832Z,7.15
2022-12-02T08:01:58.617Z,6.32
2022-12-02T08:04:48.157Z,6.78
2022-12-02T08:10:17.665Z,7.25
2022-12-02T08:19:23.115Z,6.43
2022-12-02T08:24:59.013Z,6.85
2022-12-02T08:27:49.449Z,6.10
2022-12-02T08:30:34.490Z,6.97
2022-12-02T08:36:04.154Z,6.63
2022-12-02T08:41:35.474Z,6.30
2022-12-02T08:44:26.759Z,6.53
2022-12-02T08:47:11.631Z,6.53
2022-12-02T08:53:40.909Z,6.10
2022-12-02T08:56:35.464Z,5.93
2022-12-02T09:00:02.066Z,6.43
2022-12-02T09:02:58.661Z,6.78
2022-12-02T09:06:40.342Z,6.85
2022-12-02T09:09:55.809Z,6.05
2022-12-02T09:13:22.392Z,7.28
2022-12-02T09:16:45.568Z,6.55
2022-12-02T09:19:51.337Z,6.80
2022-12-02T09:23:17.973Z,6.82
2022-12-02T09:26:30.708Z,6.28
2022-12-02T09:29:18.829Z,7.07
2022-12-02T09:32:09.875Z,6.53
2022-12-02T09:35:01.853Z,6.70
2022-12-02T09:41:50.569Z,6.60
2022-12-02T09:44:37.882Z,6.97
2022-12-02T09:47:23.975Z,7.03
2022-12-02T09:50:27.558Z,6.35
2022-12-02T09:57:17.929Z,6.68
2022-12-02T10:00:10.628Z,6.85
2022-12-02T10:03:01.688Z,6.07
2022-12-02T10:06:07.205Z,6.43
2022-12-02T10:08:56.215Z,6.90
2022-12-02T10:11:40.953Z,6.35
2022-12-02T10:14:26.005Z,6.55
2022-12-02T10:17:20.642Z,7.32
2022-12-02T10:20:06.464Z,6.43
2022-12-02T10:23:13.888Z,5.90
2022-12-02T10:26:15.501Z,6.43
2022-12-02T10:29:51.479Z,6.50
2022-12-02T10:33:04.792Z,6.28
2022-12-02T10:36:00.357Z,6.30
2022-12-02T10:38:59.893Z,6.40
2022-12-02T10:41:45.564Z,6.43
2022-12-02T10:44:33.313Z,6.78
2022-12-02T10:47:32.323Z,6.18
2022-12-02T10:50:20.309Z,6.13
2022-12-02T10:53:22.499Z,7.15
2022-12-02T10:56:23.200Z,6.95
2022-12-02T10:59:14.981Z,7.75
2022-12-02T11:02:01.083Z,8.13
2022-12-02T11:04:46.263Z,7.95
2022-12-02T11:07:37.606Z,7.28
2022-12-02T11:10:32.182Z,8.02
2022-12-02T11:13:18.847Z,8.13
2022-12-02T11:16:33.999Z,7.28
2022-12-02T11:19:34.139Z,7.38
2022-12-02T11:22:47.755Z,7.45
2022-12-02T11:26:06.253Z,7.47
2022-12-02T11:29:17.046Z,7.53
2022-12-02T11:32:20.912Z,7.45
2022-12-02T11:35:19.373Z,7.10
2022-12-02T11:38:46.200Z,8.50
2022-12-02T11:41:57.085Z,7.78
2022-12-02T11:44:41.973Z,7.53
2022-12-02T11:47:33.588Z,7.28
2022-12-02T11:50:32.188Z,7.55
2022-12-02T11:53:20.405Z,7.13
2022-12-02T11:56:11.555Z,7.82
2022-12-02T11:59:09.539Z,7.45
2022-12-02T12:02:19.892Z,7.15
2022-12-02T12:05:09.584Z,8.65
2022-12-02T12:07:58.370Z,6.35
2022-12-02T12:11:07.118Z,6.43
2022-12-02T12:14:10.488Z,6.70
2022-12-02T12:17:15.372Z,6.15
2022-12-02T12:20:00.520Z,6.90
2022-12-02T12:25:31.766Z,6.70
2022-12-02T12:28:24.513Z,6.78
2022-12-02T12:31:09.499Z,7.10
2022-12-02T12:33:54.560Z,7.28
2022-12-02T12:36:39.601Z,6.40
2022-12-02T12:42:09.532Z,6.95
2022-12-02T12:44:54.557Z,8.55
2022-12-02T12:47:39.489Z,7.95
2022-12-02T12:50:29.718Z,7.78
2022-12-02T12:53:14.797Z,8.10
2022-12-02T12:56:01.347Z,7.97
2022-12-02T12:58:46.166Z,7.85
2022-12-02T13:04:15.623Z,7.00
2022-12-02T13:07:00.424Z,7.40
2022-12-02T13:09:45.440Z,9.10
2022-12-02T13:15:15.452Z,8.60
2022-12-02T13:18:00.600Z,8.00
2022-12-02T13:20:45.485Z,8.23
2022-12-02T13:23:30.312Z,7.60
2022-12-02T13:29:00.943Z,7.53
2022-12-02T13:31:45.740Z,8.63
2022-12-02T13:34:30.703Z,8.25
2022-12-02T13:40:00.335Z,9.35
2022-12-02T13:42:45.387Z,10.15
2022-12-02T13:48:14.710Z,7.93
2022-12-02T13:53:46.921Z,7.40
2022-12-02T13:56:31.965Z,8.20
2022-12-02T14:02:01.543Z,8.98
2022-12-02T14:07:30.731Z,8.18
2022-12-02T14:10:15.894Z,9.10
2022-12-02T14:13:01.859Z,9.23
2022-12-02T14:18:31.509Z,8.18
2022-12-02T14:24:00.994Z,7.45
2022-12-02T14:26:45.429Z,7.38
2022-12-02T14:29:30.411Z,7.82
2022-12-02T14:32:15.572Z,8.18
2022-12-02T14:35:00.147Z,8.57
2022-12-02T14:37:45.103Z,8.90
2022-12-02T14:40:31.174Z,9.20
2022-12-02T14:43:16.064Z,9.60
2022-12-02T14:46:00.989Z,7.80
2022-12-02T14:51:30.370Z,6.90
2022-12-02T14:54:15.406Z,7.28
2022-12-02T14:57:00.296Z,7.30
2022-12-02T14:59:45.215Z,7.13
2022-12-02T15:02:29.882Z,6.50
2022-12-02T15:05:18.200Z,7.55
2022-12-02T15:08:03.727Z,7.10
2022-12-02T15:10:48.182Z,7.68
2022-12-02T15:13:33.103Z,7.00
2022-12-02T15:19:02.692Z,6.53
2022-12-02T15:24:32.979Z,6.47
2022-12-02T15:27:17.547Z,7.43
2022-12-02T15:30:02.421Z,8.35
2022-12-02T15:32:48.050Z,8.35
2022-12-02T15:35:33.087Z,8.20
2022-12-02T15:38:17.991Z,8.63
2022-12-02T15:41:02.989Z,7.97
2022-12-02T15:43:53.266Z,8.68
2022-12-02T15:46:38.953Z,7.78
2022-12-02T15:52:09.668Z,7.38
2022-12-02T15:54:54.600Z,9.48
2022-12-02T16:00:24.168Z,8.40
2022-12-02T16:03:09.034Z,8.70
2022-12-02T16:05:55.114Z,8.65
2022-12-02T16:08:40.252Z,8.73
2022-12-02T16:11:25.012Z,9.05
2022-12-02T16:14:10.092Z,8.75
2022-12-02T16:16:54.837Z,8.75
2022-12-02T16:19:39.999Z,8.30
2022-12-02T16:22:24.675Z,8.30
2022-12-02T16:25:09.652Z,7.95
2022-12-02T16:30:38.883Z,7.57
2022-12-02T16:33:24.614Z,9.75
2022-12-02T16:36:10.378Z,9.52
2022-12-02T16:38:55.155Z,8.65
2022-12-02T16:41:40.081Z,8.38
2022-12-02T16:44:25.070Z,8.68
2022-12-02T16:47:09.966Z,9.18
2022-12-02T16:49:55.004Z,8.95
2022-12-02T16:55:24.433Z,8.93
2022-12-02T16:58:09.101Z,9.05
2022-12-02T17:00:54.112Z,8.85
2022-12-02T17:03:39.065Z,9.23
2022-12-02T17:06:23.526Z,9.35
2022-12-02T17:09:08.660Z,9.73
2022-12-02T17:11:53.423Z,8.93
2022-12-02T17:14:38.336Z,8.90
2022-12-02T17:17:44.808Z,8.73
2022-12-02T17:20:27.757Z,9.48
2022-12-02T17:25:57.465Z,8.82
2022-12-02T17:28:42.368Z,9.88
2022-12-02T17:34:15.291Z,8.32
2022-12-02T17:37:00.079Z,8.75
2022-12-02T17:39:44.995Z,9.13
2022-12-02T17:42:30.023Z,9.50
2022-12-02T17:45:15.302Z,10.10
2022-12-02T17:50:44.661Z,9.02
2022-12-02T17:53:29.974Z,9.88
2022-12-02T17:58:58.974Z,8.82
2022-12-02T18:01:43.941Z,8.43
2022-12-02T18:04:28.925Z,8.68
2022-12-02T18:07:13.840Z,8.88
2022-12-02T18:09:58.921Z,8.30
2022-12-02T18:12:43.683Z,9.38
2022-12-02T18:15:28.644Z,8.43
2022-12-02T18:18:13.334Z,8.93
2022-12-02T18:23:42.752Z,8.35
2022-12-02T18:26:27.294Z,8.82
2022-12-02T18:29:12.208Z,8.23
2022-12-02T18:31:56.697Z,8.40
2022-12-02T18:34:41.651Z,8.90
2022-12-02T18:37:26.665Z,9.65
2022-12-02T18:43:01.449Z,9.27
2022-12-02T18:45:46.363Z,8.80
2022-12-02T18:51:15.936Z,8.43
2022-12-02T18:54:00.872Z,9.68
2022-12-02T18:56:46.475Z,9.77
2022-12-02T18:59:32.160Z,9.73
2022-12-02T19:02:16.824Z,10.45
2022-12-02T19:05:01.699Z,9.57
2022-12-02T19:10:31.326Z,8.73
2022-12-02T19:13:16.373Z,8.85
2022-12-02T19:16:01.604Z,10.00
2022-12-02T19:18:46.607Z,10.05
2022-12-02T19:21:31.498Z,9.57
2022-12-02T19:24:16.479Z,10.20
2022-12-02T19:27:01.558Z,9.80
2022-12-02T19:29:46.554Z,8.93
2022-12-02T19:35:16.052Z,9.57
2022-12-02T19:38:05.816Z,10.68
2022-12-02T19:40:52.518Z,9.80
2022-12-02T19:43:37.978Z,10.20
2022-12-02T19:46:23.101Z,9.82
2022-12-02T19:49:08.117Z,10.65
2022-12-02T19:51:53.076Z,10.20
2022-12-02T19:54:38.549Z,9.75
2022-12-02T19:57:23.874Z,9.32
2022-12-02T20:02:58.515Z,8.50
2022-12-02T20:08:29.046Z,8.60
2022-12-02T20:11:13.663Z,9.23
2022-12-02T20:13:58.614Z,8.55
2022-12-02T20:16:43.572Z,10.05
2022-12-02T20:19:28.491Z,8.70
2022-12-02T20:22:13.524Z,9.43
2022-12-02T20:24:58.592Z,9.70
2022-12-02T20:27:43.996Z,9.18
2022-12-02T20:30:28.899Z,9.95
2022-12-02T20:35:58.530Z,9.15
2022-12-02T20:38:43.516Z,9.55
2022-12-02T20:41:28.422Z,9.32
2022-12-02T20:44:13.470Z,9.75
2022-12-02T20:46:58.280Z,11.30
2022-12-02T20:49:43.214Z,11.13
2022-12-02T20:52:28.180Z,10.25
2022-12-02T20:55:13.109Z,11.15
2022-12-02T21:00:42.684Z,10.20
2022-12-02T21:03:27.697Z,11.25
2022-12-02T21:06:12.615Z,10.68
2022-12-02T21:11:41.897Z,11.05
2022-12-02T21:17:11.459Z,10.40
2022-12-02T21:19:56.587Z,10.20
2022-12-02T21:25:25.780Z,9.98
2022-12-02T21:28:10.656Z,10.68
2022-12-02T21:30:55.489Z,10.85
2022-12-02T21:36:25.037Z,9.55
2022-12-02T21:39:09.491Z,11.05
2022-12-02T21:41:54.492Z,12.27
2022-12-02T21:44:39.328Z,11.25
2022-12-02T21:47:23.948Z,10.95
2022-12-02T21:50:10.882Z,11.80
2022-12-02T21:52:55.554Z,9.75
2022-12-02T21:55:39.919Z,9.18
2022-12-02T21:58:25.106Z,8.80
2022-12-02T22:01:28.445Z,9.60
2022-12-02T22:04:16.175Z,9.93
2022-12-02T22:07:19.276Z,10.45
2022-12-02T22:10:05.232Z,9.20
2022-12-02T22:12:51.183Z,9.05
2022-12-02T22:15:36.286Z,9.45
2022-12-02T22:18:21.265Z,9.30
2022-12-02T22:21:06.356Z,9.30
2022-12-02T22:23:51.288Z,9.23
2022-12-02T22:26:36.114Z,9.88
2022-12-02T22:32:05.904Z,8.88
2022-12-02T22:34:51.379Z,8.75
2022-12-02T22:37:36.493Z,9.38
2022-12-02T22:43:05.892Z,7.88
2022-12-02T22:45:50.953Z,9.07
2022-12-02T22:48:35.989Z,9.68
2022-12-02T22:51:20.955Z,8.73
2022-12-02T22:56:50.764Z,8.43
2022-12-02T22:59:35.674Z,9.10
2022-12-02T23:02:20.485Z,10.15
2022-12-02T23:07:49.891Z,7.15
2022-12-02T23:10:35.362Z,8.50
2022-12-02T23:13:20.480Z,8.40
2022-12-02T23:16:05.602Z,8.95
2022-12-02T23:21:34.777Z,7.80
2022-12-02T23:27:04.271Z,8.05
2022-12-02T23:29:49.425Z,7.97
2022-12-02T23:32:34.557Z,8.82
2022-12-02T23:35:19.329Z,8.45
2022-12-02T23:38:03.839Z,8.93
2022-12-02T23:40:49.451Z,8.40
2022-12-02T23:43:34.317Z,8.98
2022-12-02T23:46:19.194Z,9.35
2022-12-02T23:49:04.417Z,8.68
2022-12-02T23:51:49.289Z,8.35
2022-12-02T23:57:18.795Z,9.43
